sensor_id;sensor_type;location;lat;lon;timestamp;temperature;humidity
9901;DHT22;4989;48.772;9.154;2022-12-18T09:51:20;-2.40;87.50
9901;DHT22;4989;48.772;9.154;2022-12-18T09:56:29;-0.80;77.50
9901;DHT22;4989;48.772;9.154;2022-12-18T10:01:37;-0.80;77.00
9901;DHT22;4989;48.772;9.154;2022-12-18T10:22:55;0.20;74.60
9901;DHT22;4989;48.772;9.154;2022-12-18T10:28:10;-0.60;76.40
9901;DHT22;4989;48.772;9.154;2022-12-18T10:54:03;-0.10;78.80
9901;DHT22;4989;48.772;9.154;2022-12-18T11:04:28;-0.10;78.10
9901;DHT22;4989;48.772;9.154;2022-12-18T11:09:36;0.20;77.40
9901;DHT22;4989;48.772;9.154;2022-12-18T11:20:00;1.00;76.80
9901;DHT22;4989;48.772;9.154;2022-12-18T11:30:37;3.00;65.90
9901;DHT22;4989;48.772;9.154;2022-12-18T11:35:52;1.50;71.00
9901;DHT22;4989;48.772;9.154;2022-12-18T12:34:20;2.90;63.40
9901;DHT22;4989;48.772;9.154;2022-12-18T12:39:40;2.10;64.80
9901;DHT22;4989;48.772;9.154;2022-12-18T12:44:55;1.50;66.80
9901;DHT22;4989;48.772;9.154;2022-12-18T14:03:36;0.20;71.60
9901;DHT22;4989;48.772;9.154;2022-12-18T14:29:28;1.10;77.10
9901;DHT22;4989;48.772;9.154;2022-12-18T14:34:32;1.30;76.70
9901;DHT22;4989;48.772;9.154;2022-12-18T14:39:34;1.10;77.70
9901;DHT22;4989;48.772;9.154;2022-12-18T14:44:36;1.00;79.70
9901;DHT22;4989;48.772;9.154;2022-12-18T14:49:58;0.60;81.60
9901;DHT22;4989;48.772;9.154;2022-12-18T14:55:00;0.70;81.50
9901;DHT22;4989;48.772;9.154;2022-12-18T20:20:31;0.80;82.30
9901;DHT22;4989;48.772;9.154;2022-12-18T20:25:40;1.40;83.60
9901;DHT22;4989;48.772;9.154;2022-12-18T20:30:42;1.20;84.20
9901;DHT22;4989;48.772;9.154;2022-12-18T20:35:44;1.50;83.30
9901;DHT22;4989;48.772;9.154;2022-12-18T20:40:46;1.10;84.90
9901;DHT22;4989;48.772;9.154;2022-12-18T20:45:48;0.90;86.30
9901;DHT22;4989;48.772;9.154;2022-12-18T20:51:03;1.10;87.90
9901;DHT22;4989;48.772;9.154;2022-12-18T20:56:11;1.40;85.70
9901;DHT22;4989;48.772;9.154;2022-12-18T21:01:23;1.50;83.10
9901;DHT22;4989;48.772;9.154;2022-12-18T21:06:29;1.00;86.70
9901;DHT22;4989;48.772;9.154;2022-12-18T21:11:32;1.10;87.70
9901;DHT22;4989;48.772;9.154;2022-12-18T21:16:54;1.00;87.10
9901;DHT22;4989;48.772;9.154;2022-12-18T21:27:00;0.80;86.60
9901;DHT22;4989;48.772;9.154;2022-12-18T21:32:03;1.00;86.90
9901;DHT22;4989;48.772;9.154;2022-12-18T21:37:06;0.80;88.20
9901;DHT22;4989;48.772;9.154;2022-12-18T21:52:35;0.50;90.10
9901;DHT22;4989;48.772;9.154;2022-12-18T21:57:37;1.00;88.90
9901;DHT22;4989;48.772;9.154;2022-12-18T22:02:40;1.30;88.20
9901;DHT22;4989;48.772;9.154;2022-12-18T22:07:42;1.40;87.10
9901;DHT22;4989;48.772;9.154;2022-12-18T22:12:44;1.60;85.80
9901;DHT22;4989;48.772;9.154;2022-12-18T22:17:46;1.50;86.60
9901;DHT22;4989;48.772;9.154;2022-12-18T22:22:48;1.40;87.30
9901;DHT22;4989;48.772;9.154;2022-12-18T22:27:52;1.70;86.60
9901;DHT22;4989;48.772;9.154;2022-12-18T22:33:13;1.60;86.60
9901;DHT22;4989;48.772;9.154;2022-12-18T22:38:15;2.00;84.10
9901;DHT22;4989;48.772;9.154;2022-12-18T22:43:17;1.80;85.00
9901;DHT22;4989;48.772;9.154;2022-12-18T22:48:19;1.30;86.90
9901;DHT22;4989;48.772;9.154;2022-12-18T22:53:21;1.20;88.30
9901;DHT22;4989;48.772;9.154;2022-12-18T22:58:24;1.30;87.70
9901;DHT22;4989;48.772;9.154;2022-12-18T23:03:26;1.60;86.80
9901;DHT22;4989;48.772;9.154;2022-12-18T23:08:29;1.80;85.10
9901;DHT22;4989;48.772;9.154;2022-12-18T23:13:32;1.60;87.70
9901;DHT22;4989;48.772;9.154;2022-12-18T23:18:35;1.80;85.80
9901;DHT22;4989;48.772;9.154;2022-12-18T23:23:38;1.30;89.00
9901;DHT22;4989;48.772;9.154;2022-12-18T23:28:41;1.80;87.30
9901;DHT22;4989;48.772;9.154;2022-12-18T23:33:44;2.20;84.40
9901;DHT22;4989;48.772;9.154;2022-12-18T23:38:49;2.40;83.90
9901;DHT22;4989;48.772;9.154;2022-12-18T23:43:53;2.40;84.10
9901;DHT22;4989;48.772;9.154;2022-12-18T23:49:00;2.20;84.70
9901;DHT22;4989;48.772;9.154;2022-12-18T23:54:03;2.20;85.40
9901;DHT22;4989;48.772;9.154;2022-12-18T23:59:05;2.20;87.10
